createdAt,value
2017-09-27T00:01:14.479Z,34.57
2017-09-27T00:03:42.819Z,35.40
2017-09-27T00:06:11.160Z,32.60
2017-09-27T00:08:39.527Z,33.13
2017-09-27T00:11:07.878Z,33.90
2017-09-27T00:13:36.219Z,32.50
2017-09-27T00:16:04.570Z,30.37
2017-09-27T00:18:32.900Z,32.47
2017-09-27T00:21:01.500Z,33.30
2017-09-27T00:23:29.872Z,31.63
2017-09-27T00:25:58.241Z,31.30
2017-09-27T00:28:26.588Z,31.93
2017-09-27T00:30:54.950Z,31.57
2017-09-27T00:33:23.297Z,28.77
2017-09-27T00:35:51.663Z,29.50
2017-09-27T00:38:20.027Z,29.77
2017-09-27T00:40:48.370Z,30.67
2017-09-27T00:43:16.712Z,30.80
2017-09-27T00:45:45.051Z,29.33
2017-09-27T00:48:13.392Z,30.67
2017-09-27T00:50:41.910Z,30.23
2017-09-27T00:53:10.243Z,31.47
2017-09-27T00:55:38.582Z,30.70
2017-09-27T00:58:06.955Z,32.70
2017-09-27T01:00:35.318Z,29.97
2017-09-27T01:03:03.692Z,30.73
2017-09-27T01:05:32.037Z,30.67
2017-09-27T01:08:00.562Z,29.63
2017-09-27T01:10:28.902Z,32.83
2017-09-27T01:12:57.246Z,28.67
2017-09-27T01:15:25.590Z,26.90
2017-09-27T01:17:53.930Z,28.63
2017-09-27T01:20:22.406Z,28.30
2017-09-27T01:22:50.750Z,29.90
2017-09-27T01:25:19.094Z,29.70
2017-09-27T01:27:47.430Z,29.90
2017-09-27T01:30:15.794Z,29.27
2017-09-27T01:32:44.139Z,28.70
2017-09-27T01:35:12.479Z,28.80
2017-09-27T01:37:40.874Z,27.80
2017-09-27T01:40:09.211Z,27.10
2017-09-27T01:42:37.551Z,28.47
2017-09-27T01:45:05.915Z,25.37
2017-09-27T01:47:34.261Z,26.83
2017-09-27T01:50:02.847Z,26.10
2017-09-27T01:52:31.186Z,26.03
2017-09-27T01:54:59.549Z,26.80
2017-09-27T01:57:28.366Z,24.07
2017-09-27T01:59:56.707Z,23.10
2017-09-27T02:02:25.063Z,23.03
2017-09-27T02:04:53.396Z,23.97
2017-09-27T02:07:21.759Z,24.23
2017-09-27T02:09:50.098Z,24.20
2017-09-27T02:12:18.470Z,23.90
2017-09-27T02:14:46.839Z,22.40
2017-09-27T02:17:15.190Z,23.77
2017-09-27T02:19:43.667Z,23.63
2017-09-27T02:22:12.006Z,23.53
2017-09-27T02:24:40.353Z,22.50
2017-09-27T02:27:08.687Z,23.57
2017-09-27T02:29:37.023Z,21.70
2017-09-27T02:32:05.366Z,23.53
2017-09-27T02:34:33.791Z,22.13
2017-09-27T02:37:02.126Z,22.27
2017-09-27T02:39:30.592Z,21.40
2017-09-27T02:41:58.930Z,21.37
2017-09-27T02:44:27.271Z,22.23
2017-09-27T02:46:55.612Z,20.40
2017-09-27T02:49:23.951Z,21.57
2017-09-27T02:51:52.312Z,18.93
2017-09-27T02:54:20.655Z,20.07
2017-09-27T02:56:49.017Z,21.90
2017-09-27T02:59:17.383Z,22.40
2017-09-27T03:01:46.183Z,22.00
2017-09-27T03:04:14.526Z,22.37
2017-09-27T03:06:42.862Z,22.27
2017-09-27T03:09:11.234Z,21.13
2017-09-27T03:11:39.570Z,21.33
2017-09-27T03:14:07.942Z,22.40
2017-09-27T03:16:36.279Z,21.33
2017-09-27T03:19:04.618Z,22.00
2017-09-27T03:21:33.014Z,21.67
2017-09-27T03:24:01.354Z,23.53
2017-09-27T03:26:29.687Z,24.33
2017-09-27T03:28:58.039Z,23.57
2017-09-27T03:31:26.562Z,24.77
2017-09-27T03:33:54.911Z,26.17
2017-09-27T03:36:23.251Z,25.07
2017-09-27T03:38:51.587Z,26.83
2017-09-27T03:41:19.935Z,24.57
2017-09-27T03:43:48.403Z,23.90
2017-09-27T03:46:16.743Z,23.60
2017-09-27T03:48:45.086Z,25.00
2017-09-27T03:51:13.418Z,25.70
2017-09-27T03:53:41.792Z,25.47
2017-09-27T03:56:10.158Z,24.83
2017-09-27T03:58:38.526Z,25.57
2017-09-27T04:01:06.862Z,22.90
2017-09-27T04:03:35.328Z,23.60
2017-09-27T04:06:04.561Z,25.67
2017-09-27T04:08:32.912Z,27.40
2017-09-27T04:11:02.018Z,25.50
2017-09-27T04:13:30.415Z,27.87
2017-09-27T04:15:58.755Z,26.17
2017-09-27T04:18:27.090Z,29.07
2017-09-27T04:20:55.562Z,26.37
2017-09-27T04:23:23.898Z,25.93
2017-09-27T04:25:52.252Z,24.63
2017-09-27T04:28:20.590Z,25.30
2017-09-27T04:30:48.931Z,24.00
2017-09-27T04:33:17.298Z,24.07
2017-09-27T04:35:45.653Z,23.87
2017-09-27T04:38:13.999Z,22.73
2017-09-27T04:40:42.342Z,21.90
2017-09-27T04:43:10.906Z,22.50
2017-09-27T04:45:39.466Z,23.53
2017-09-27T04:48:07.811Z,22.73
2017-09-27T04:50:36.150Z,23.17
2017-09-27T04:53:04.527Z,24.07
2017-09-27T04:55:32.902Z,24.87
2017-09-27T04:58:01.239Z,24.60
2017-09-27T05:00:29.605Z,24.30
2017-09-27T05:02:57.938Z,22.80
2017-09-27T05:05:26.313Z,21.57
2017-09-27T05:07:54.659Z,22.47
2017-09-27T05:10:23.018Z,21.87
2017-09-27T05:12:51.368Z,21.83
2017-09-27T05:15:19.714Z,21.77
2017-09-27T05:17:48.061Z,22.17
2017-09-27T05:20:16.424Z,22.70
2017-09-27T05:22:44.764Z,25.03
2017-09-27T05:25:13.098Z,25.57
2017-09-27T05:27:41.439Z,25.50
2017-09-27T05:30:09.782Z,24.40
2017-09-27T05:32:38.135Z,24.00
2017-09-27T05:35:06.465Z,22.77
2017-09-27T05:37:34.815Z,25.17
2017-09-27T05:40:03.162Z,24.23
2017-09-27T05:42:31.510Z,22.37
2017-09-27T05:44:59.847Z,24.70
2017-09-27T05:47:28.212Z,22.43
2017-09-27T05:49:56.557Z,21.50
2017-09-27T05:52:24.918Z,22.57
2017-09-27T05:54:53.290Z,23.40
2017-09-27T05:57:21.631Z,22.43
2017-09-27T05:59:50.016Z,23.50
2017-09-27T06:02:18.487Z,22.00
2017-09-27T06:04:46.829Z,22.07
2017-09-27T06:07:15.169Z,23.77
2017-09-27T06:09:43.554Z,23.63
2017-09-27T06:12:11.887Z,24.60
2017-09-27T06:14:40.231Z,24.13
2017-09-27T06:17:08.567Z,22.07
2017-09-27T06:19:36.931Z,25.20
2017-09-27T06:22:05.309Z,24.07
2017-09-27T06:24:33.645Z,23.70
2017-09-27T06:27:02.123Z,22.57
2017-09-27T06:29:30.518Z,23.50
2017-09-27T06:31:58.862Z,21.67
2017-09-27T06:34:27.211Z,22.60
2017-09-27T06:36:55.561Z,22.70
2017-09-27T06:39:23.903Z,22.30
2017-09-27T06:41:52.246Z,21.63
2017-09-27T06:44:20.718Z,23.17
2017-09-27T06:46:49.068Z,22.70
2017-09-27T06:49:17.423Z,22.57
2017-09-27T06:51:45.767Z,23.57
2017-09-27T06:54:14.899Z,23.13
2017-09-27T06:56:43.280Z,23.13
2017-09-27T06:59:11.768Z,19.77
2017-09-27T07:01:40.110Z,20.83
2017-09-27T07:04:08.464Z,20.27
2017-09-27T07:06:36.803Z,19.97
2017-09-27T07:09:05.151Z,20.53
2017-09-27T07:11:33.525Z,20.40
2017-09-27T07:14:01.874Z,20.50
2017-09-27T07:16:30.214Z,18.93
2017-09-27T07:18:58.590Z,20.13
2017-09-27T07:21:26.962Z,20.37
2017-09-27T07:23:55.317Z,20.83
2017-09-27T07:26:23.690Z,20.37
2017-09-27T07:28:52.039Z,21.40
2017-09-27T07:31:20.378Z,20.47
2017-09-27T07:33:48.842Z,20.57
2017-09-27T07:36:17.212Z,18.90
2017-09-27T07:38:45.579Z,19.00
2017-09-27T07:41:13.935Z,19.17
2017-09-27T07:43:42.310Z,19.43
2017-09-27T07:46:10.660Z,19.40
2017-09-27T07:48:39.030Z,18.90
2017-09-27T07:51:07.511Z,18.30
2017-09-27T07:53:35.861Z,18.80
2017-09-27T07:56:04.207Z,18.90
2017-09-27T07:58:32.554Z,20.33
2017-09-27T08:01:00.918Z,18.67
2017-09-27T08:03:29.263Z,21.20
2017-09-27T08:05:57.612Z,21.00
2017-09-27T08:08:25.984Z,20.77
2017-09-27T08:10:54.362Z,19.43
2017-09-27T08:13:22.832Z,19.10
2017-09-27T08:15:51.174Z,17.83
2017-09-27T08:18:19.519Z,19.40
2017-09-27T08:20:47.910Z,17.27
2017-09-27T08:23:16.255Z,16.17
2017-09-27T08:25:44.600Z,16.00
2017-09-27T08:28:12.947Z,17.83
2017-09-27T08:30:41.294Z,16.77
2017-09-27T08:33:09.689Z,18.07
2017-09-27T08:35:38.063Z,18.20
2017-09-27T08:38:06.415Z,17.53
2017-09-27T08:40:34.759Z,17.60
2017-09-27T08:43:03.128Z,19.07
2017-09-27T08:45:31.480Z,16.17
2017-09-27T08:47:59.827Z,16.70
2017-09-27T08:50:28.198Z,14.07
2017-09-27T08:52:56.569Z,15.83
2017-09-27T08:55:24.922Z,15.53
2017-09-27T08:57:53.295Z,14.10
2017-09-27T09:00:21.641Z,13.70
2017-09-27T09:02:50.011Z,14.03
2017-09-27T09:05:18.363Z,13.87
2017-09-27T09:07:46.711Z,14.97
2017-09-27T09:10:15.083Z,14.10
2017-09-27T09:12:43.428Z,15.20
2017-09-27T09:15:11.774Z,14.63
2017-09-27T09:17:40.126Z,13.90
2017-09-27T09:20:08.475Z,12.13
2017-09-27T09:22:36.874Z,12.67
2017-09-27T09:25:05.222Z,13.17
2017-09-27T09:27:33.565Z,12.57
2017-09-27T09:30:01.918Z,13.43
2017-09-27T09:32:30.271Z,13.03
2017-09-27T09:34:58.623Z,11.43
2017-09-27T09:37:26.994Z,12.80
2017-09-27T09:39:55.390Z,13.37
2017-09-27T09:42:23.758Z,14.27
2017-09-27T09:44:52.110Z,15.53
2017-09-27T09:47:20.494Z,16.17
2017-09-27T09:49:48.844Z,16.20
2017-09-27T09:52:17.318Z,15.83
2017-09-27T09:54:45.668Z,15.50
2017-09-27T09:57:14.015Z,16.07
2017-09-27T09:59:42.359Z,15.50
2017-09-27T10:02:10.710Z,14.87
2017-09-27T10:04:39.079Z,15.07
2017-09-27T10:07:07.432Z,15.17
2017-09-27T10:09:35.779Z,15.27
2017-09-27T10:12:04.146Z,15.13
2017-09-27T10:14:32.500Z,14.57
2017-09-27T10:17:00.842Z,15.77
2017-09-27T10:19:29.233Z,15.83
2017-09-27T10:21:57.615Z,16.40
2017-09-27T10:24:25.965Z,16.67
2017-09-27T10:26:54.335Z,14.63
2017-09-27T10:29:22.674Z,14.77
2017-09-27T10:31:51.033Z,15.30
2017-09-27T10:34:19.509Z,15.53
2017-09-27T10:36:47.862Z,14.90
2017-09-27T10:39:16.208Z,14.40
2017-09-27T10:41:44.576Z,14.17
2017-09-27T10:44:12.920Z,13.30
2017-09-27T10:46:41.266Z,13.37
2017-09-27T10:49:09.610Z,14.37
2017-09-27T10:51:37.991Z,13.60
2017-09-27T10:54:06.390Z,13.47
2017-09-27T10:56:34.739Z,14.47
2017-09-27T10:59:03.090Z,13.97
2017-09-27T11:01:32.367Z,12.73
2017-09-27T11:04:00.808Z,12.80
2017-09-27T11:06:29.163Z,13.20
2017-09-27T11:08:57.519Z,14.23
2017-09-27T11:11:25.862Z,13.10
2017-09-27T11:13:54.214Z,12.47
2017-09-27T11:16:22.580Z,14.37
2017-09-27T11:18:50.934Z,13.07
2017-09-27T11:21:19.287Z,13.00
2017-09-27T11:23:47.672Z,14.07
2017-09-27T11:26:16.027Z,13.47
2017-09-27T11:28:44.417Z,14.57
2017-09-27T11:31:12.788Z,14.17
2017-09-27T11:33:41.163Z,15.03
2017-09-27T11:36:09.531Z,14.17
2017-09-27T11:38:37.886Z,14.80
2017-09-27T11:41:06.270Z,14.83
2017-09-27T11:43:34.635Z,15.07
2017-09-27T11:46:03.018Z,15.83
2017-09-27T11:48:31.370Z,17.27
2017-09-27T11:50:59.936Z,17.10
2017-09-27T11:53:28.302Z,17.60
2017-09-27T11:55:56.644Z,16.00
2017-09-27T11:58:24.990Z,16.77
2017-09-27T12:00:53.340Z,15.00
2017-09-27T12:03:21.712Z,16.43
2017-09-27T12:05:50.088Z,14.20
2017-09-27T12:08:18.474Z,13.10
2017-09-27T12:10:46.827Z,13.03
2017-09-27T12:13:15.220Z,13.30
2017-09-27T12:15:49.622Z,12.40
2017-09-27T12:18:18.001Z,12.70
2017-09-27T12:20:54.743Z,11.53
2017-09-27T12:23:23.236Z,12.27
2017-09-27T12:28:51.149Z,10.53
2017-09-27T12:31:20.961Z,10.30
2017-09-27T12:33:49.788Z,10.23
2017-09-27T12:36:19.588Z,10.63
2017-09-27T12:38:50.545Z,9.33
2017-09-27T12:44:14.608Z,9.20
2017-09-27T12:46:48.056Z,9.63
2017-09-27T12:49:18.050Z,11.93
2017-09-27T12:52:08.473Z,10.37
2017-09-27T13:00:56.231Z,8.23
2017-09-27T13:03:25.072Z,7.90
2017-09-27T13:05:54.798Z,8.37
2017-09-27T13:08:29.216Z,8.10
2017-09-27T13:10:58.114Z,8.43
2017-09-27T13:13:31.852Z,9.07
2017-09-27T13:16:19.145Z,8.40
2017-09-27T13:18:53.905Z,8.20
2017-09-27T13:21:26.686Z,9.20
2017-09-27T13:24:08.832Z,10.20
2017-09-27T13:26:37.926Z,9.40
2017-09-27T13:29:07.118Z,10.60
2017-09-27T13:31:39.090Z,12.57
2017-09-27T13:34:07.904Z,12.03
2017-09-27T13:36:37.102Z,12.20
2017-09-27T13:39:06.983Z,12.80
2017-09-27T13:41:36.459Z,12.03
2017-09-27T13:44:07.343Z,13.60
2017-09-27T13:46:38.750Z,11.57
2017-09-27T13:49:08.445Z,10.77
2017-09-27T13:51:36.902Z,12.00
2017-09-27T13:54:05.252Z,12.93
2017-09-27T13:56:33.598Z,13.13
2017-09-27T13:59:01.978Z,13.27
2017-09-27T14:01:30.359Z,12.13
2017-09-27T14:03:58.703Z,11.30
2017-09-27T14:06:27.058Z,11.60
2017-09-27T14:08:55.430Z,13.23
2017-09-27T14:11:23.774Z,11.97
2017-09-27T14:13:52.120Z,12.00
2017-09-27T14:16:20.599Z,12.83
2017-09-27T14:18:48.947Z,12.43
2017-09-27T14:21:17.295Z,11.63
2017-09-27T14:23:45.643Z,12.63
2017-09-27T14:26:13.986Z,13.20
2017-09-27T14:28:42.378Z,11.20
2017-09-27T14:31:10.727Z,14.07
2017-09-27T14:33:39.076Z,22.90
2017-09-27T14:36:07.515Z,12.87
2017-09-27T14:38:35.871Z,29.00
2017-09-27T14:41:04.347Z,16.40
2017-09-27T14:43:32.704Z,12.73
2017-09-27T14:46:01.051Z,14.90
2017-09-27T14:48:29.398Z,13.10
2017-09-27T14:50:57.744Z,12.00
2017-09-27T14:53:26.117Z,17.77
2017-09-27T14:55:54.468Z,20.97
2017-09-27T14:58:22.818Z,45.07
2017-09-27T15:00:51.175Z,16.60
2017-09-27T15:03:19.522Z,17.63
2017-09-27T15:05:47.895Z,31.30
2017-09-27T15:08:16.248Z,13.97
2017-09-27T15:10:44.626Z,12.97
2017-09-27T15:13:12.983Z,35.10
2017-09-27T15:15:41.344Z,86.10
2017-09-27T15:18:09.717Z,59.60
2017-09-27T15:20:38.059Z,15.10
2017-09-27T15:23:06.405Z,29.63
2017-09-27T15:25:34.750Z,25.17
2017-09-27T15:28:03.126Z,19.07
2017-09-27T15:30:31.508Z,23.37
2017-09-27T15:32:59.999Z,26.93
2017-09-27T15:35:28.334Z,24.40
2017-09-27T15:37:56.706Z,27.10
2017-09-27T15:40:25.057Z,18.90
2017-09-27T15:42:53.426Z,20.60
2017-09-27T15:45:21.906Z,22.40
2017-09-27T15:47:50.387Z,20.37
2017-09-27T15:50:18.732Z,19.90
2017-09-27T15:52:47.082Z,21.43
2017-09-27T15:55:15.429Z,20.30
2017-09-27T15:57:43.777Z,18.07
2017-09-27T16:00:12.422Z,18.50
2017-09-27T16:02:40.947Z,19.70
2017-09-27T16:05:09.298Z,19.37
2017-09-27T16:07:37.647Z,19.80
2017-09-27T16:10:06.903Z,20.23
2017-09-27T16:12:35.246Z,21.80
2017-09-27T16:15:03.601Z,20.20
2017-09-27T16:17:32.085Z,21.13
2017-09-27T16:20:00.443Z,19.93
2017-09-27T16:22:28.818Z,20.50
2017-09-27T16:24:57.171Z,20.60
2017-09-27T16:27:25.526Z,19.43
2017-09-27T16:29:54.064Z,21.40
2017-09-27T16:32:22.407Z,22.70
2017-09-27T16:34:50.847Z,21.43
2017-09-27T16:37:19.210Z,22.73
2017-09-27T16:39:47.626Z,23.93
2017-09-27T16:42:15.973Z,25.60
2017-09-27T16:44:44.315Z,26.07
2017-09-27T16:47:12.689Z,25.53
2017-09-27T16:49:41.043Z,29.13
2017-09-27T16:52:09.452Z,28.93
2017-09-27T16:54:37.799Z,27.40
2017-09-27T16:57:06.146Z,27.93
2017-09-27T16:59:35.922Z,29.20
2017-09-27T17:02:13.991Z,29.60
2017-09-27T17:04:44.220Z,27.60
2017-09-27T17:07:15.810Z,26.97
2017-09-27T17:09:45.324Z,31.90
2017-09-27T17:12:16.772Z,38.37
2017-09-27T17:14:47.614Z,34.27
2017-09-27T17:17:15.966Z,33.63
2017-09-27T17:19:44.313Z,32.40
2017-09-27T17:22:12.667Z,33.07
2017-09-27T17:24:41.037Z,33.20
2017-09-27T17:27:09.430Z,34.63
2017-09-27T17:29:37.806Z,34.73
2017-09-27T17:32:06.928Z,36.27
2017-09-27T17:34:35.339Z,34.23
2017-09-27T17:37:06.469Z,36.10
2017-09-27T17:39:35.430Z,37.17
2017-09-27T17:42:03.986Z,35.20
2017-09-27T17:44:32.561Z,35.70
2017-09-27T17:47:01.555Z,38.73
2017-09-27T17:49:30.039Z,34.80
2017-09-27T17:51:58.860Z,40.70
2017-09-27T17:54:28.119Z,38.93
2017-09-27T17:56:58.618Z,38.80
2017-09-27T17:59:26.999Z,37.43
2017-09-27T18:01:55.738Z,37.83
2017-09-27T18:10:13.440Z,37.10
2017-09-27T18:12:49.165Z,37.70
2017-09-27T18:18:22.015Z,35.97
2017-09-27T18:20:50.469Z,36.90
2017-09-27T18:23:18.863Z,35.43
2017-09-27T18:25:47.780Z,38.67
2017-09-27T18:28:16.128Z,38.10
2017-09-27T18:30:44.712Z,40.13
2017-09-27T18:33:13.066Z,38.10
2017-09-27T18:35:41.414Z,39.40
2017-09-27T18:38:09.766Z,37.60
2017-09-27T18:40:38.154Z,37.23
2017-09-27T18:43:06.756Z,40.83
2017-09-27T18:45:35.267Z,41.97
2017-09-27T18:48:03.642Z,43.80
2017-09-27T18:50:33.896Z,43.73
2017-09-27T18:53:02.263Z,41.87
2017-09-27T18:55:30.626Z,40.60
2017-09-27T18:57:58.969Z,37.30
2017-09-27T19:00:27.351Z,41.30
2017-09-27T19:02:55.699Z,40.80
2017-09-27T19:05:24.053Z,35.30
2017-09-27T19:07:52.415Z,39.20
2017-09-27T19:10:20.850Z,38.80
2017-09-27T19:12:49.551Z,36.67
2017-09-27T19:15:19.054Z,39.47
2017-09-27T19:17:47.565Z,40.80
2017-09-27T19:20:16.618Z,39.13
2017-09-27T19:22:45.061Z,40.00
2017-09-27T19:25:15.325Z,40.00
2017-09-27T19:27:44.078Z,44.70
2017-09-27T19:30:12.430Z,43.90
2017-09-27T19:32:41.007Z,41.40
2017-09-27T19:35:09.644Z,40.43
2017-09-27T19:37:38.066Z,40.30
2017-09-27T19:40:06.627Z,41.47
2017-09-27T19:42:34.978Z,39.47
2017-09-27T19:45:03.350Z,44.00
2017-09-27T19:47:31.715Z,49.87
2017-09-27T19:50:02.425Z,44.00
2017-09-27T19:52:30.901Z,43.23
2017-09-27T19:54:59.545Z,43.10
2017-09-27T19:57:27.992Z,43.70
2017-09-27T19:59:56.343Z,44.40
2017-09-27T20:02:24.719Z,42.03
2017-09-27T20:04:53.126Z,42.03
2017-09-27T20:07:21.483Z,46.43
2017-09-27T20:09:49.968Z,44.37
2017-09-27T20:12:18.330Z,48.67
2017-09-27T20:14:46.749Z,42.47
2017-09-27T20:17:15.157Z,42.37
2017-09-27T20:19:43.546Z,43.80
2017-09-27T20:22:11.940Z,44.57
2017-09-27T20:24:40.392Z,51.47
2017-09-27T20:27:08.789Z,46.50
2017-09-27T20:29:37.151Z,42.20
2017-09-27T20:32:05.541Z,43.93
2017-09-27T20:34:33.946Z,44.43
2017-09-27T20:37:02.463Z,44.37
2017-09-27T20:39:30.826Z,42.20
2017-09-27T20:41:59.176Z,43.87
2017-09-27T20:44:27.551Z,44.97
2017-09-27T20:46:56.094Z,48.83
2017-09-27T20:49:24.495Z,44.20
2017-09-27T20:51:52.877Z,42.20
2017-09-27T20:54:21.255Z,42.03
2017-09-27T20:56:49.608Z,43.03
2017-09-27T20:59:18.139Z,42.47
2017-09-27T21:01:46.531Z,41.13
2017-09-27T21:04:14.884Z,42.53
2017-09-27T21:06:43.225Z,40.40
2017-09-27T21:09:11.570Z,40.60
2017-09-27T21:11:39.942Z,43.67
2017-09-27T21:14:08.284Z,41.43
2017-09-27T21:16:36.623Z,40.33
2017-09-27T21:19:05.110Z,39.50
2017-09-27T21:21:33.510Z,38.50
2017-09-27T21:24:01.963Z,39.77
2017-09-27T21:26:30.314Z,38.50
2017-09-27T21:28:58.698Z,40.97
2017-09-27T21:31:27.035Z,39.07
2017-09-27T21:33:55.472Z,37.23
2017-09-27T21:36:23.847Z,42.03
2017-09-27T21:38:52.188Z,40.03
2017-09-27T21:41:20.586Z,41.57
2017-09-27T21:43:48.959Z,40.07
2017-09-27T21:46:17.337Z,40.50
2017-09-27T21:48:45.708Z,40.67
2017-09-27T21:51:14.054Z,42.60
2017-09-27T21:53:42.422Z,40.67
2017-09-27T21:56:10.766Z,38.40
2017-09-27T21:58:39.106Z,39.80
2017-09-27T22:01:07.448Z,37.83
2017-09-27T22:03:35.811Z,36.90
2017-09-27T22:06:04.154Z,37.23
2017-09-27T22:08:32.523Z,36.83
2017-09-27T22:11:00.943Z,39.03
2017-09-27T22:13:29.299Z,44.93
2017-09-27T22:15:57.643Z,37.10
2017-09-27T22:18:25.983Z,35.73
2017-09-27T22:20:54.322Z,36.80
2017-09-27T22:23:22.691Z,37.30
2017-09-27T22:25:51.057Z,40.63
2017-09-27T22:28:19.398Z,39.97
2017-09-27T22:30:47.766Z,40.47
2017-09-27T22:33:16.109Z,38.70
2017-09-27T22:35:44.446Z,41.50
2017-09-27T22:38:12.787Z,38.50
2017-09-27T22:40:41.138Z,39.40
2017-09-27T22:43:09.599Z,38.10
2017-09-27T22:45:37.939Z,36.83
2017-09-27T22:48:06.294Z,36.80
2017-09-27T22:50:34.703Z,38.57
2017-09-27T22:53:03.104Z,36.00
2017-09-27T22:55:31.493Z,35.80
2017-09-27T22:57:59.835Z,32.20
2017-09-27T23:00:28.245Z,31.90
2017-09-27T23:02:56.574Z,32.20
2017-09-27T23:05:24.918Z,34.60
2017-09-27T23:07:53.339Z,32.93
2017-09-27T23:10:21.693Z,32.93
2017-09-27T23:12:50.034Z,34.40
2017-09-27T23:15:18.374Z,34.33
2017-09-27T23:17:46.717Z,31.60
2017-09-27T23:20:15.055Z,35.67
2017-09-27T23:22:43.391Z,31.50
2017-09-27T23:25:11.758Z,32.70
2017-09-27T23:27:40.103Z,32.07
2017-09-27T23:30:08.487Z,36.30
2017-09-27T23:32:36.822Z,34.53
2017-09-27T23:35:05.167Z,32.40
2017-09-27T23:37:33.506Z,36.23
2017-09-27T23:40:01.851Z,34.47
2017-09-27T23:42:30.226Z,33.57
2017-09-27T23:44:58.558Z,30.30
2017-09-27T23:47:27.019Z,32.20
2017-09-27T23:49:55.354Z,32.47
2017-09-27T23:52:23.694Z,34.30
2017-09-27T23:54:52.060Z,32.00
2017-09-27T23:57:20.398Z,31.63
2017-09-27T23:59:48.771Z,34.00
